sensor_id;sensor_type;location;lat;lon;timestamp;P1;durP1;ratioP1;P2;durP2;ratioP2
72273;SDS011;60208;48.692;8.948;2023-09-18T00:01:38;5.88;;;2.70;;
72273;SDS011;60208;48.692;8.948;2023-09-18T00:04:05;6.25;;;2.60;;
72273;SDS011;60208;48.692;8.948;2023-09-18T00:06:32;5.22;;;2.78;;
72273;SDS011;60208;48.692;8.948;2023-09-18T00:08:58;6.22;;;3.00;;
72273;SDS011;60208;48.692;8.948;2023-09-18T00:11:23;5.60;;;2.90;;
72273;SDS011;60208;48.692;8.948;2023-09-18T00:13:48;4.68;;;3.17;;
72273;SDS011;60208;48.692;8.948;2023-09-18T00:16:14;4.55;;;3.10;;
72273;SDS011;60208;48.692;8.948;2023-09-18T00:18:39;4.65;;;3.03;;
72273;SDS011;60208;48.692;8.948;2023-09-18T00:21:06;8.15;;;3.33;;
72273;SDS011;60208;48.692;8.948;2023-09-18T00:23:31;5.53;;;3.25;;
72273;SDS011;60208;48.692;8.948;2023-09-18T00:25:57;4.30;;;3.00;;
72273;SDS011;60208;48.692;8.948;2023-09-18T00:28:22;5.00;;;3.28;;
72273;SDS011;60208;48.692;8.948;2023-09-18T00:30:48;4.25;;;3.03;;
72273;SDS011;60208;48.692;8.948;2023-09-18T00:33:14;6.60;;;2.88;;
72273;SDS011;60208;48.692;8.948;2023-09-18T00:35:40;6.53;;;2.83;;
72273;SDS011;60208;48.692;8.948;2023-09-18T00:38:05;3.75;;;2.90;;
72273;SDS011;60208;48.692;8.948;2023-09-18T00:40:32;4.07;;;3.00;;
72273;SDS011;60208;48.692;8.948;2023-09-18T00:42:58;4.45;;;2.95;;
72273;SDS011;60208;48.692;8.948;2023-09-18T00:45:23;3.90;;;2.85;;
72273;SDS011;60208;48.692;8.948;2023-09-18T00:47:49;4.40;;;3.03;;
72273;SDS011;60208;48.692;8.948;2023-09-18T00:50:15;4.70;;;2.53;;
72273;SDS011;60208;48.692;8.948;2023-09-18T00:52:42;4.32;;;2.97;;
72273;SDS011;60208;48.692;8.948;2023-09-18T00:55:07;5.93;;;2.88;;
72273;SDS011;60208;48.692;8.948;2023-09-18T00:57:34;5.07;;;3.00;;
72273;SDS011;60208;48.692;8.948;2023-09-18T01:00:01;9.98;;;3.05;;
72273;SDS011;60208;48.692;8.948;2023-09-18T01:02:29;4.80;;;2.80;;
72273;SDS011;60208;48.692;8.948;2023-09-18T01:04:54;3.58;;;3.08;;
72273;SDS011;60208;48.692;8.948;2023-09-18T01:07:20;6.35;;;3.33;;
72273;SDS011;60208;48.692;8.948;2023-09-18T01:09:46;4.78;;;3.25;;
72273;SDS011;60208;48.692;8.948;2023-09-18T01:17:36;3.97;;;3.00;;
72273;SDS011;60208;48.692;8.948;2023-09-18T01:20:03;4.70;;;2.83;;
72273;SDS011;60208;48.692;8.948;2023-09-18T01:22:31;5.63;;;2.88;;
72273;SDS011;60208;48.692;8.948;2023-09-18T01:24:57;6.43;;;3.25;;
72273;SDS011;60208;48.692;8.948;2023-09-18T01:27:23;6.63;;;2.92;;
72273;SDS011;60208;48.692;8.948;2023-09-18T01:29:48;5.22;;;2.88;;
72273;SDS011;60208;48.692;8.948;2023-09-18T01:32:14;6.28;;;3.30;;
72273;SDS011;60208;48.692;8.948;2023-09-18T01:34:41;9.25;;;3.10;;
72273;SDS011;60208;48.692;8.948;2023-09-18T01:37:09;6.63;;;3.08;;
72273;SDS011;60208;48.692;8.948;2023-09-18T01:39:35;11.02;;;2.90;;
72273;SDS011;60208;48.692;8.948;2023-09-18T01:42:01;6.63;;;3.15;;
72273;SDS011;60208;48.692;8.948;2023-09-18T01:44:29;8.00;;;2.83;;
72273;SDS011;60208;48.692;8.948;2023-09-18T01:46:56;7.47;;;3.15;;
72273;SDS011;60208;48.692;8.948;2023-09-18T01:49:27;7.50;;;3.17;;
72273;SDS011;60208;48.692;8.948;2023-09-18T01:52:03;5.45;;;3.03;;
72273;SDS011;60208;48.692;8.948;2023-09-18T01:54:29;7.30;;;2.92;;
72273;SDS011;60208;48.692;8.948;2023-09-18T01:56:55;10.50;;;4.03;;
72273;SDS011;60208;48.692;8.948;2023-09-18T01:59:21;5.32;;;3.92;;
72273;SDS011;60208;48.692;8.948;2023-09-18T02:01:47;10.30;;;3.65;;
72273;SDS011;60208;48.692;8.948;2023-09-18T02:04:12;7.40;;;2.90;;
72273;SDS011;60208;48.692;8.948;2023-09-18T02:06:38;6.57;;;3.25;;
72273;SDS011;60208;48.692;8.948;2023-09-18T02:09:04;7.40;;;3.03;;
72273;SDS011;60208;48.692;8.948;2023-09-18T02:11:30;6.55;;;3.85;;
72273;SDS011;60208;48.692;8.948;2023-09-18T02:13:55;6.88;;;3.53;;
72273;SDS011;60208;48.692;8.948;2023-09-18T02:16:21;8.77;;;3.50;;
72273;SDS011;60208;48.692;8.948;2023-09-18T02:18:47;6.90;;;3.50;;
72273;SDS011;60208;48.692;8.948;2023-09-18T02:21:18;6.57;;;2.95;;
72273;SDS011;60208;48.692;8.948;2023-09-18T02:23:45;7.15;;;2.90;;
72273;SDS011;60208;48.692;8.948;2023-09-18T02:26:10;9.90;;;3.10;;
72273;SDS011;60208;48.692;8.948;2023-09-18T02:28:36;6.55;;;3.22;;
72273;SDS011;60208;48.692;8.948;2023-09-18T02:31:01;8.98;;;3.05;;
72273;SDS011;60208;48.692;8.948;2023-09-18T02:33:27;7.18;;;2.60;;
72273;SDS011;60208;48.692;8.948;2023-09-18T02:35:53;9.90;;;2.80;;
72273;SDS011;60208;48.692;8.948;2023-09-18T02:38:18;7.90;;;2.97;;
72273;SDS011;60208;48.692;8.948;2023-09-18T02:40:45;7.68;;;2.97;;
72273;SDS011;60208;48.692;8.948;2023-09-18T02:43:10;6.63;;;2.92;;
72273;SDS011;60208;48.692;8.948;2023-09-18T02:45:35;9.20;;;3.38;;
72273;SDS011;60208;48.692;8.948;2023-09-18T02:48:01;6.28;;;2.92;;
72273;SDS011;60208;48.692;8.948;2023-09-18T02:50:26;11.07;;;2.88;;
72273;SDS011;60208;48.692;8.948;2023-09-18T02:52:52;7.63;;;3.10;;
72273;SDS011;60208;48.692;8.948;2023-09-18T02:55:17;8.00;;;2.97;;
72273;SDS011;60208;48.692;8.948;2023-09-18T02:57:43;9.60;;;3.28;;
72273;SDS011;60208;48.692;8.948;2023-09-18T03:00:08;11.80;;;3.17;;
72273;SDS011;60208;48.692;8.948;2023-09-18T03:02:34;10.55;;;3.45;;
72273;SDS011;60208;48.692;8.948;2023-09-18T03:05:00;9.25;;;3.83;;
72273;SDS011;60208;48.692;8.948;2023-09-18T03:07:26;7.03;;;3.13;;
72273;SDS011;60208;48.692;8.948;2023-09-18T03:09:54;8.10;;;3.40;;
72273;SDS011;60208;48.692;8.948;2023-09-18T03:12:20;7.53;;;2.88;;
72273;SDS011;60208;48.692;8.948;2023-09-18T03:14:47;10.23;;;3.20;;
72273;SDS011;60208;48.692;8.948;2023-09-18T03:17:12;9.15;;;3.55;;
72273;SDS011;60208;48.692;8.948;2023-09-18T03:19:38;7.88;;;3.33;;
72273;SDS011;60208;48.692;8.948;2023-09-18T03:22:03;6.13;;;2.60;;
72273;SDS011;60208;48.692;8.948;2023-09-18T03:24:29;8.25;;;2.75;;
72273;SDS011;60208;48.692;8.948;2023-09-18T03:26:54;10.25;;;3.08;;
72273;SDS011;60208;48.692;8.948;2023-09-18T03:29:19;6.00;;;2.50;;
72273;SDS011;60208;48.692;8.948;2023-09-18T03:31:45;6.47;;;2.90;;
72273;SDS011;60208;48.692;8.948;2023-09-18T03:34:10;6.20;;;3.08;;
72273;SDS011;60208;48.692;8.948;2023-09-18T03:36:35;7.80;;;3.30;;
72273;SDS011;60208;48.692;8.948;2023-09-18T03:39:02;8.98;;;3.20;;
72273;SDS011;60208;48.692;8.948;2023-09-18T03:41:29;6.70;;;3.08;;
72273;SDS011;60208;48.692;8.948;2023-09-18T03:43:59;9.43;;;4.25;;
72273;SDS011;60208;48.692;8.948;2023-09-18T03:46:25;9.10;;;3.80;;
72273;SDS011;60208;48.692;8.948;2023-09-18T03:48:50;12.57;;;2.83;;
72273;SDS011;60208;48.692;8.948;2023-09-18T03:51:16;9.27;;;2.72;;
72273;SDS011;60208;48.692;8.948;2023-09-18T03:53:43;5.93;;;2.58;;
72273;SDS011;60208;48.692;8.948;2023-09-18T03:56:09;7.18;;;2.45;;
72273;SDS011;60208;48.692;8.948;2023-09-18T03:58:34;7.30;;;2.95;;
72273;SDS011;60208;48.692;8.948;2023-09-18T04:01:00;11.15;;;3.03;;
72273;SDS011;60208;48.692;8.948;2023-09-18T04:03:26;5.55;;;2.90;;
72273;SDS011;60208;48.692;8.948;2023-09-18T04:05:51;6.53;;;2.90;;
72273;SDS011;60208;48.692;8.948;2023-09-18T04:08:16;8.13;;;3.10;;
72273;SDS011;60208;48.692;8.948;2023-09-18T04:10:42;9.63;;;2.75;;
72273;SDS011;60208;48.692;8.948;2023-09-18T04:13:08;5.55;;;2.75;;
72273;SDS011;60208;48.692;8.948;2023-09-18T04:15:34;7.05;;;2.78;;
72273;SDS011;60208;48.692;8.948;2023-09-18T04:18:02;5.68;;;2.53;;
72273;SDS011;60208;48.692;8.948;2023-09-18T04:20:30;6.18;;;2.10;;
72273;SDS011;60208;48.692;8.948;2023-09-18T04:25:43;5.22;;;2.17;;
72273;SDS011;60208;48.692;8.948;2023-09-18T04:28:09;6.68;;;2.00;;
72273;SDS011;60208;48.692;8.948;2023-09-18T04:30:34;4.10;;;2.20;;
72273;SDS011;60208;48.692;8.948;2023-09-18T04:33:00;6.30;;;2.10;;
72273;SDS011;60208;48.692;8.948;2023-09-18T04:35:27;5.35;;;2.13;;
72273;SDS011;60208;48.692;8.948;2023-09-18T04:37:55;4.68;;;1.77;;
72273;SDS011;60208;48.692;8.948;2023-09-18T04:40:21;5.90;;;2.58;;
72273;SDS011;60208;48.692;8.948;2023-09-18T04:42:46;8.40;;;2.08;;
72273;SDS011;60208;48.692;8.948;2023-09-18T04:45:11;5.70;;;2.20;;
72273;SDS011;60208;48.692;8.948;2023-09-18T04:47:37;7.30;;;2.90;;
72273;SDS011;60208;48.692;8.948;2023-09-18T04:50:02;5.03;;;2.78;;
72273;SDS011;60208;48.692;8.948;2023-09-18T04:52:30;9.05;;;2.10;;
72273;SDS011;60208;48.692;8.948;2023-09-18T04:54:56;7.43;;;2.70;;
72273;SDS011;60208;48.692;8.948;2023-09-18T04:57:22;7.13;;;2.20;;
72273;SDS011;60208;48.692;8.948;2023-09-18T04:59:48;6.03;;;2.10;;
72273;SDS011;60208;48.692;8.948;2023-09-18T05:02:14;4.35;;;2.05;;
72273;SDS011;60208;48.692;8.948;2023-09-18T05:04:39;4.53;;;2.05;;
72273;SDS011;60208;48.692;8.948;2023-09-18T05:07:05;4.85;;;1.80;;
72273;SDS011;60208;48.692;8.948;2023-09-18T05:09:30;5.18;;;1.70;;
72273;SDS011;60208;48.692;8.948;2023-09-18T05:11:56;5.60;;;1.80;;
72273;SDS011;60208;48.692;8.948;2023-09-18T05:14:23;6.35;;;1.70;;
72273;SDS011;60208;48.692;8.948;2023-09-18T05:16:48;5.18;;;1.90;;
72273;SDS011;60208;48.692;8.948;2023-09-18T05:19:13;5.35;;;2.15;;
72273;SDS011;60208;48.692;8.948;2023-09-18T05:21:39;3.95;;;2.30;;
72273;SDS011;60208;48.692;8.948;2023-09-18T05:24:04;7.38;;;2.20;;
72273;SDS011;60208;48.692;8.948;2023-09-18T05:26:30;6.07;;;2.10;;
72273;SDS011;60208;48.692;8.948;2023-09-18T05:28:55;5.60;;;1.85;;
72273;SDS011;60208;48.692;8.948;2023-09-18T05:31:22;6.75;;;2.15;;
72273;SDS011;60208;48.692;8.948;2023-09-18T05:33:48;5.10;;;2.00;;
72273;SDS011;60208;48.692;8.948;2023-09-18T05:36:13;3.90;;;2.20;;
72273;SDS011;60208;48.692;8.948;2023-09-18T05:38:39;6.50;;;2.17;;
72273;SDS011;60208;48.692;8.948;2023-09-18T05:41:05;4.78;;;1.92;;
72273;SDS011;60208;48.692;8.948;2023-09-18T05:43:30;9.73;;;2.20;;
72273;SDS011;60208;48.692;8.948;2023-09-18T05:45:56;5.80;;;2.03;;
72273;SDS011;60208;48.692;8.948;2023-09-18T05:48:21;5.75;;;2.15;;
72273;SDS011;60208;48.692;8.948;2023-09-18T05:50:47;5.55;;;2.13;;
72273;SDS011;60208;48.692;8.948;2023-09-18T05:53:12;10.60;;;2.33;;
72273;SDS011;60208;48.692;8.948;2023-09-18T05:55:38;6.65;;;2.10;;
72273;SDS011;60208;48.692;8.948;2023-09-18T05:58:04;8.75;;;2.33;;
72273;SDS011;60208;48.692;8.948;2023-09-18T06:00:31;8.00;;;2.00;;
72273;SDS011;60208;48.692;8.948;2023-09-18T06:02:57;7.20;;;2.33;;
72273;SDS011;60208;48.692;8.948;2023-09-18T06:05:24;4.72;;;2.30;;
72273;SDS011;60208;48.692;8.948;2023-09-18T06:07:49;9.80;;;3.10;;
72273;SDS011;60208;48.692;8.948;2023-09-18T06:10:15;7.80;;;2.20;;
72273;SDS011;60208;48.692;8.948;2023-09-18T06:12:41;6.90;;;2.53;;
72273;SDS011;60208;48.692;8.948;2023-09-18T06:15:07;6.13;;;2.72;;
72273;SDS011;60208;48.692;8.948;2023-09-18T06:17:39;6.85;;;2.45;;
72273;SDS011;60208;48.692;8.948;2023-09-18T06:20:06;9.13;;;2.10;;
72273;SDS011;60208;48.692;8.948;2023-09-18T06:22:36;7.80;;;2.47;;
72273;SDS011;60208;48.692;8.948;2023-09-18T06:25:03;6.88;;;1.98;;
72273;SDS011;60208;48.692;8.948;2023-09-18T06:27:29;9.18;;;2.30;;
72273;SDS011;60208;48.692;8.948;2023-09-18T06:29:56;6.72;;;1.73;;
72273;SDS011;60208;48.692;8.948;2023-09-18T06:32:22;7.05;;;2.00;;
72273;SDS011;60208;48.692;8.948;2023-09-18T06:34:47;5.25;;;1.75;;
72273;SDS011;60208;48.692;8.948;2023-09-18T06:37:13;4.57;;;1.75;;
72273;SDS011;60208;48.692;8.948;2023-09-18T06:39:38;5.85;;;2.10;;
72273;SDS011;60208;48.692;8.948;2023-09-18T06:42:04;5.10;;;1.88;;
72273;SDS011;60208;48.692;8.948;2023-09-18T06:44:29;5.03;;;2.00;;
72273;SDS011;60208;48.692;8.948;2023-09-18T06:46:55;10.02;;;2.17;;
72273;SDS011;60208;48.692;8.948;2023-09-18T06:49:20;5.10;;;1.90;;
72273;SDS011;60208;48.692;8.948;2023-09-18T06:51:46;7.10;;;2.08;;
72273;SDS011;60208;48.692;8.948;2023-09-18T06:54:11;4.55;;;1.83;;
72273;SDS011;60208;48.692;8.948;2023-09-18T06:56:36;5.45;;;1.90;;
72273;SDS011;60208;48.692;8.948;2023-09-18T06:59:02;6.35;;;1.90;;
72273;SDS011;60208;48.692;8.948;2023-09-18T07:01:27;9.73;;;2.13;;
72273;SDS011;60208;48.692;8.948;2023-09-18T07:03:53;6.65;;;2.15;;
72273;SDS011;60208;48.692;8.948;2023-09-18T07:06:19;7.10;;;1.88;;
72273;SDS011;60208;48.692;8.948;2023-09-18T07:08:45;4.65;;;1.40;;
72273;SDS011;60208;48.692;8.948;2023-09-18T07:11:12;4.07;;;1.83;;
72273;SDS011;60208;48.692;8.948;2023-09-18T07:13:40;4.15;;;1.33;;
72273;SDS011;60208;48.692;8.948;2023-09-18T07:16:06;6.28;;;1.65;;
72273;SDS011;60208;48.692;8.948;2023-09-18T07:18:31;3.58;;;1.38;;
72273;SDS011;60208;48.692;8.948;2023-09-18T07:20:57;4.43;;;1.38;;
72273;SDS011;60208;48.692;8.948;2023-09-18T07:23:22;4.80;;;1.23;;
72273;SDS011;60208;48.692;8.948;2023-09-18T07:25:48;4.05;;;1.25;;
72273;SDS011;60208;48.692;8.948;2023-09-18T07:28:13;3.15;;;1.00;;
72273;SDS011;60208;48.692;8.948;2023-09-18T07:30:42;4.47;;;1.33;;
72273;SDS011;60208;48.692;8.948;2023-09-18T07:33:09;2.97;;;1.00;;
72273;SDS011;60208;48.692;8.948;2023-09-18T07:35:35;4.90;;;1.27;;
72273;SDS011;60208;48.692;8.948;2023-09-18T07:38:00;2.72;;;1.23;;
72273;SDS011;60208;48.692;8.948;2023-09-18T07:40:25;4.13;;;1.20;;
72273;SDS011;60208;48.692;8.948;2023-09-18T07:42:51;3.47;;;1.00;;
72273;SDS011;60208;48.692;8.948;2023-09-18T07:45:16;4.90;;;1.00;;
72273;SDS011;60208;48.692;8.948;2023-09-18T07:47:43;3.22;;;1.13;;
72273;SDS011;60208;48.692;8.948;2023-09-18T07:50:09;4.82;;;1.65;;
72273;SDS011;60208;48.692;8.948;2023-09-18T07:52:34;3.03;;;0.95;;
72273;SDS011;60208;48.692;8.948;2023-09-18T07:55:00;2.17;;;0.90;;
72273;SDS011;60208;48.692;8.948;2023-09-18T07:57:26;3.00;;;1.13;;
72273;SDS011;60208;48.692;8.948;2023-09-18T07:59:57;2.20;;;0.77;;
72273;SDS011;60208;48.692;8.948;2023-09-18T08:02:22;3.00;;;1.00;;
72273;SDS011;60208;48.692;8.948;2023-09-18T08:04:48;2.50;;;0.90;;
72273;SDS011;60208;48.692;8.948;2023-09-18T08:07:13;3.53;;;0.90;;
72273;SDS011;60208;48.692;8.948;2023-09-18T08:09:39;4.82;;;1.02;;
72273;SDS011;60208;48.692;8.948;2023-09-18T08:12:07;3.90;;;0.90;;
72273;SDS011;60208;48.692;8.948;2023-09-18T08:14:36;1.30;;;0.75;;
72273;SDS011;60208;48.692;8.948;2023-09-18T08:17:02;3.25;;;1.02;;
72273;SDS011;60208;48.692;8.948;2023-09-18T08:19:29;4.65;;;0.90;;
72273;SDS011;60208;48.692;8.948;2023-09-18T08:21:56;4.07;;;1.00;;
72273;SDS011;60208;48.692;8.948;2023-09-18T08:24:22;2.67;;;0.90;;
72273;SDS011;60208;48.692;8.948;2023-09-18T08:26:48;3.55;;;1.02;;
72273;SDS011;60208;48.692;8.948;2023-09-18T08:29:14;4.78;;;0.95;;
72273;SDS011;60208;48.692;8.948;2023-09-18T08:31:40;2.22;;;1.10;;
72273;SDS011;60208;48.692;8.948;2023-09-18T08:34:05;11.60;;;1.75;;
72273;SDS011;60208;48.692;8.948;2023-09-18T08:36:31;6.28;;;1.48;;
72273;SDS011;60208;48.692;8.948;2023-09-18T08:38:57;4.15;;;1.50;;
72273;SDS011;60208;48.692;8.948;2023-09-18T08:41:22;3.25;;;1.33;;
72273;SDS011;60208;48.692;8.948;2023-09-18T08:43:51;4.88;;;1.52;;
72273;SDS011;60208;48.692;8.948;2023-09-18T08:46:18;6.18;;;1.80;;
72273;SDS011;60208;48.692;8.948;2023-09-18T08:48:43;3.83;;;1.55;;
72273;SDS011;60208;48.692;8.948;2023-09-18T08:51:09;4.53;;;1.50;;
72273;SDS011;60208;48.692;8.948;2023-09-18T08:53:37;7.25;;;1.77;;
72273;SDS011;60208;48.692;8.948;2023-09-18T08:56:03;4.90;;;1.67;;
72273;SDS011;60208;48.692;8.948;2023-09-18T08:58:32;6.07;;;1.50;;
72273;SDS011;60208;48.692;8.948;2023-09-18T09:01:02;6.97;;;1.70;;
72273;SDS011;60208;48.692;8.948;2023-09-18T09:03:34;5.03;;;1.70;;
72273;SDS011;60208;48.692;8.948;2023-09-18T09:06:01;7.00;;;1.85;;
72273;SDS011;60208;48.692;8.948;2023-09-18T09:08:27;4.72;;;1.70;;
72273;SDS011;60208;48.692;8.948;2023-09-18T09:10:54;5.00;;;1.85;;
72273;SDS011;60208;48.692;8.948;2023-09-18T09:13:19;8.25;;;2.05;;
72273;SDS011;60208;48.692;8.948;2023-09-18T09:15:51;6.22;;;1.90;;
72273;SDS011;60208;48.692;8.948;2023-09-18T09:18:19;7.95;;;1.80;;
72273;SDS011;60208;48.692;8.948;2023-09-18T09:23:19;4.95;;;2.00;;
72273;SDS011;60208;48.692;8.948;2023-09-18T09:25:44;11.80;;;2.25;;
72273;SDS011;60208;48.692;8.948;2023-09-18T09:28:10;4.60;;;1.92;;
72273;SDS011;60208;48.692;8.948;2023-09-18T09:30:35;7.47;;;2.33;;
72273;SDS011;60208;48.692;8.948;2023-09-18T09:33:02;6.75;;;1.90;;
72273;SDS011;60208;48.692;8.948;2023-09-18T09:35:30;4.90;;;2.00;;
72273;SDS011;60208;48.692;8.948;2023-09-18T09:37:58;5.43;;;1.75;;
72273;SDS011;60208;48.692;8.948;2023-09-18T09:40:26;7.03;;;2.10;;
72273;SDS011;60208;48.692;8.948;2023-09-18T09:42:53;5.05;;;2.15;;
72273;SDS011;60208;48.692;8.948;2023-09-18T09:45:22;5.78;;;2.13;;
72273;SDS011;60208;48.692;8.948;2023-09-18T09:47:48;8.50;;;2.22;;
72273;SDS011;60208;48.692;8.948;2023-09-18T09:50:19;6.63;;;2.20;;
72273;SDS011;60208;48.692;8.948;2023-09-18T09:52:53;4.05;;;2.03;;
72273;SDS011;60208;48.692;8.948;2023-09-18T09:57:53;8.35;;;2.38;;
72273;SDS011;60208;48.692;8.948;2023-09-18T10:00:23;7.07;;;3.10;;
72273;SDS011;60208;48.692;8.948;2023-09-18T10:02:55;4.20;;;2.58;;
72273;SDS011;60208;48.692;8.948;2023-09-18T10:05:24;6.38;;;2.38;;
72273;SDS011;60208;48.692;8.948;2023-09-18T10:07:55;5.13;;;1.65;;
72273;SDS011;60208;48.692;8.948;2023-09-18T10:10:24;4.25;;;2.22;;
72273;SDS011;60208;48.692;8.948;2023-09-18T10:12:51;5.32;;;2.17;;
72273;SDS011;60208;48.692;8.948;2023-09-18T10:15:18;10.13;;;2.47;;
72273;SDS011;60208;48.692;8.948;2023-09-18T10:17:45;8.23;;;2.38;;
72273;SDS011;60208;48.692;8.948;2023-09-18T10:20:14;6.13;;;2.20;;
72273;SDS011;60208;48.692;8.948;2023-09-18T10:22:48;6.35;;;2.20;;
72273;SDS011;60208;48.692;8.948;2023-09-18T10:25:23;9.60;;;2.28;;
72273;SDS011;60208;48.692;8.948;2023-09-18T10:27:50;5.50;;;2.10;;
72273;SDS011;60208;48.692;8.948;2023-09-18T10:30:23;5.47;;;2.13;;
72273;SDS011;60208;48.692;8.948;2023-09-18T10:32:56;4.65;;;2.00;;
72273;SDS011;60208;48.692;8.948;2023-09-18T10:38:23;7.90;;;2.38;;
72273;SDS011;60208;48.692;8.948;2023-09-18T10:44:24;5.03;;;1.88;;
72273;SDS011;60208;48.692;8.948;2023-09-18T10:49:56;5.85;;;2.08;;
72273;SDS011;60208;48.692;8.948;2023-09-18T10:52:22;5.00;;;1.92;;
72273;SDS011;60208;48.692;8.948;2023-09-18T10:57:26;5.72;;;1.88;;
72273;SDS011;60208;48.692;8.948;2023-09-18T11:00:10;3.03;;;1.77;;
72273;SDS011;60208;48.692;8.948;2023-09-18T11:06:13;5.03;;;1.90;;
72273;SDS011;60208;48.692;8.948;2023-09-18T11:15:31;4.38;;;1.67;;
72273;SDS011;60208;48.692;8.948;2023-09-18T11:18:06;5.00;;;1.90;;
72273;SDS011;60208;48.692;8.948;2023-09-18T11:20:33;4.25;;;1.75;;
72273;SDS011;60208;48.692;8.948;2023-09-18T11:25:48;5.18;;;1.80;;
72273;SDS011;60208;48.692;8.948;2023-09-18T11:28:23;3.28;;;1.40;;
72273;SDS011;60208;48.692;8.948;2023-09-18T11:30:58;4.38;;;1.50;;
72273;SDS011;60208;48.692;8.948;2023-09-18T11:33:44;3.17;;;1.50;;
72273;SDS011;60208;48.692;8.948;2023-09-18T11:36:30;3.15;;;1.40;;
72273;SDS011;60208;48.692;8.948;2023-09-18T11:42:17;3.40;;;1.38;;
72273;SDS011;60208;48.692;8.948;2023-09-18T11:45:26;4.45;;;1.45;;
72273;SDS011;60208;48.692;8.948;2023-09-18T11:48:07;3.42;;;1.45;;
72273;SDS011;60208;48.692;8.948;2023-09-18T11:51:13;4.75;;;1.30;;
72273;SDS011;60208;48.692;8.948;2023-09-18T11:53:55;3.13;;;1.33;;
72273;SDS011;60208;48.692;8.948;2023-09-18T11:56:32;2.07;;;1.30;;
72273;SDS011;60208;48.692;8.948;2023-09-18T11:59:07;2.83;;;1.40;;
72273;SDS011;60208;48.692;8.948;2023-09-18T12:01:52;2.63;;;1.30;;
72273;SDS011;60208;48.692;8.948;2023-09-18T12:04:37;3.05;;;1.50;;
72273;SDS011;60208;48.692;8.948;2023-09-18T12:07:10;2.72;;;1.23;;
72273;SDS011;60208;48.692;8.948;2023-09-18T12:09:39;3.25;;;1.27;;
72273;SDS011;60208;48.692;8.948;2023-09-18T12:12:13;3.72;;;1.30;;
72273;SDS011;60208;48.692;8.948;2023-09-18T12:14:51;2.28;;;1.17;;
72273;SDS011;60208;48.692;8.948;2023-09-18T12:17:20;2.08;;;1.48;;
72273;SDS011;60208;48.692;8.948;2023-09-18T12:22:56;3.17;;;1.30;;
72273;SDS011;60208;48.692;8.948;2023-09-18T12:25:28;2.67;;;1.40;;
72273;SDS011;60208;48.692;8.948;2023-09-18T12:28:01;3.17;;;1.20;;
72273;SDS011;60208;48.692;8.948;2023-09-18T12:31:03;2.33;;;1.10;;
72273;SDS011;60208;48.692;8.948;2023-09-18T12:39:51;2.92;;;1.05;;
72273;SDS011;60208;48.692;8.948;2023-09-18T12:43:17;3.95;;;1.10;;
72273;SDS011;60208;48.692;8.948;2023-09-18T12:45:46;1.50;;;1.10;;
72273;SDS011;60208;48.692;8.948;2023-09-18T12:48:24;1.48;;;0.93;;
72273;SDS011;60208;48.692;8.948;2023-09-18T12:58:03;2.67;;;1.08;;
72273;SDS011;60208;48.692;8.948;2023-09-18T13:01:03;2.22;;;1.20;;
72273;SDS011;60208;48.692;8.948;2023-09-18T13:04:13;1.95;;;0.93;;
72273;SDS011;60208;48.692;8.948;2023-09-18T13:10:15;3.88;;;1.20;;
72273;SDS011;60208;48.692;8.948;2023-09-18T13:12:42;3.47;;;1.30;;
72273;SDS011;60208;48.692;8.948;2023-09-18T13:16:08;3.60;;;1.00;;
72273;SDS011;60208;48.692;8.948;2023-09-18T13:18:56;2.65;;;1.20;;
72273;SDS011;60208;48.692;8.948;2023-09-18T13:32:04;3.70;;;0.95;;
72273;SDS011;60208;48.692;8.948;2023-09-18T13:34:59;2.65;;;1.00;;
72273;SDS011;60208;48.692;8.948;2023-09-18T13:40:50;5.60;;;1.00;;
72273;SDS011;60208;48.692;8.948;2023-09-18T13:43:16;2.33;;;0.95;;
72273;SDS011;60208;48.692;8.948;2023-09-18T13:49:19;2.03;;;1.00;;
72273;SDS011;60208;48.692;8.948;2023-09-18T13:52:14;1.00;;;0.88;;
72273;SDS011;60208;48.692;8.948;2023-09-18T14:07:44;2.95;;;1.02;;
72273;SDS011;60208;48.692;8.948;2023-09-18T14:10:29;2.17;;;0.95;;
72273;SDS011;60208;48.692;8.948;2023-09-18T14:13:17;3.08;;;0.80;;
72273;SDS011;60208;48.692;8.948;2023-09-18T14:16:38;2.60;;;1.17;;
72273;SDS011;60208;48.692;8.948;2023-09-18T14:20:06;1.85;;;1.02;;
72273;SDS011;60208;48.692;8.948;2023-09-18T14:36:04;1.35;;;1.00;;
72273;SDS011;60208;48.692;8.948;2023-09-18T14:38:30;2.15;;;0.73;;
72273;SDS011;60208;48.692;8.948;2023-09-18T14:40:55;1.80;;;0.77;;
72273;SDS011;60208;48.692;8.948;2023-09-18T14:43:27;4.47;;;1.00;;
72273;SDS011;60208;48.692;8.948;2023-09-18T14:45:52;1.15;;;0.90;;
72273;SDS011;60208;48.692;8.948;2023-09-18T14:48:21;1.25;;;0.90;;
72273;SDS011;60208;48.692;8.948;2023-09-18T14:50:52;2.90;;;0.90;;
72273;SDS011;60208;48.692;8.948;2023-09-18T14:53:19;2.30;;;0.80;;
72273;SDS011;60208;48.692;8.948;2023-09-18T14:55:44;2.15;;;0.93;;
72273;SDS011;60208;48.692;8.948;2023-09-18T14:58:10;2.38;;;0.90;;
72273;SDS011;60208;48.692;8.948;2023-09-18T15:00:35;1.55;;;0.80;;
72273;SDS011;60208;48.692;8.948;2023-09-18T15:03:01;1.13;;;0.60;;
72273;SDS011;60208;48.692;8.948;2023-09-18T15:05:28;2.45;;;0.90;;
72273;SDS011;60208;48.692;8.948;2023-09-18T15:07:53;1.60;;;0.90;;
72273;SDS011;60208;48.692;8.948;2023-09-18T15:10:19;2.92;;;1.00;;
72273;SDS011;60208;48.692;8.948;2023-09-18T15:12:44;1.10;;;0.80;;
72273;SDS011;60208;48.692;8.948;2023-09-18T15:15:09;2.03;;;1.00;;
72273;SDS011;60208;48.692;8.948;2023-09-18T15:17:35;1.00;;;0.80;;
72273;SDS011;60208;48.692;8.948;2023-09-18T15:20:02;1.25;;;0.90;;
72273;SDS011;60208;48.692;8.948;2023-09-18T15:22:28;1.63;;;0.80;;
72273;SDS011;60208;48.692;8.948;2023-09-18T15:24:53;1.17;;;0.90;;
72273;SDS011;60208;48.692;8.948;2023-09-18T15:27:19;3.13;;;1.00;;
72273;SDS011;60208;48.692;8.948;2023-09-18T15:29:45;1.45;;;1.00;;
72273;SDS011;60208;48.692;8.948;2023-09-18T15:32:10;2.85;;;0.85;;
72273;SDS011;60208;48.692;8.948;2023-09-18T15:34:36;3.03;;;0.80;;
72273;SDS011;60208;48.692;8.948;2023-09-18T15:37:01;1.23;;;0.80;;
72273;SDS011;60208;48.692;8.948;2023-09-18T15:39:29;3.58;;;0.77;;
72273;SDS011;60208;48.692;8.948;2023-09-18T15:41:55;1.38;;;0.80;;
72273;SDS011;60208;48.692;8.948;2023-09-18T15:44:20;1.15;;;0.73;;
72273;SDS011;60208;48.692;8.948;2023-09-18T15:46:46;1.55;;;0.90;;
72273;SDS011;60208;48.692;8.948;2023-09-18T15:49:11;2.88;;;0.95;;
72273;SDS011;60208;48.692;8.948;2023-09-18T15:51:37;1.40;;;0.82;;
72273;SDS011;60208;48.692;8.948;2023-09-18T15:54:02;1.70;;;0.75;;
72273;SDS011;60208;48.692;8.948;2023-09-18T15:56:29;1.77;;;0.80;;
72273;SDS011;60208;48.692;8.948;2023-09-18T15:58:54;1.25;;;0.80;;
72273;SDS011;60208;48.692;8.948;2023-09-18T16:01:19;2.00;;;1.00;;
72273;SDS011;60208;48.692;8.948;2023-09-18T16:03:45;1.33;;;0.90;;
72273;SDS011;60208;48.692;8.948;2023-09-18T16:06:15;1.55;;;0.70;;
72273;SDS011;60208;48.692;8.948;2023-09-18T16:08:43;1.92;;;0.90;;
72273;SDS011;60208;48.692;8.948;2023-09-18T16:11:09;2.67;;;1.02;;
72273;SDS011;60208;48.692;8.948;2023-09-18T16:13:37;2.25;;;1.05;;
72273;SDS011;60208;48.692;8.948;2023-09-18T16:16:02;1.90;;;1.08;;
72273;SDS011;60208;48.692;8.948;2023-09-18T16:18:29;3.00;;;1.05;;
72273;SDS011;60208;48.692;8.948;2023-09-18T16:20:54;1.30;;;1.10;;
72273;SDS011;60208;48.692;8.948;2023-09-18T16:23:19;3.55;;;1.10;;
72273;SDS011;60208;48.692;8.948;2023-09-18T16:25:45;3.97;;;1.15;;
72273;SDS011;60208;48.692;8.948;2023-09-18T16:28:10;1.70;;;0.95;;
72273;SDS011;60208;48.692;8.948;2023-09-18T16:30:39;2.33;;;1.13;;
72273;SDS011;60208;48.692;8.948;2023-09-18T16:33:04;2.78;;;1.15;;
72273;SDS011;60208;48.692;8.948;2023-09-18T16:35:30;2.70;;;1.13;;
72273;SDS011;60208;48.692;8.948;2023-09-18T16:40:45;1.88;;;1.08;;
72273;SDS011;60208;48.692;8.948;2023-09-18T16:43:11;3.92;;;1.10;;
72273;SDS011;60208;48.692;8.948;2023-09-18T16:45:36;4.15;;;1.00;;